createdAt,value
2022-11-15T00:00:23.249Z,10.55
2022-11-15T00:03:08.352Z,10.42
2022-11-15T00:05:54.507Z,10.46
2022-11-15T00:08:39.646Z,10.53
2022-11-15T00:11:24.869Z,10.85
2022-11-15T00:14:10.236Z,10.92
2022-11-15T00:16:55.358Z,11.39
2022-11-15T00:19:40.756Z,10.68
2022-11-15T00:22:25.898Z,10.60
2022-11-15T00:25:11.418Z,10.70
2022-11-15T00:28:01.214Z,10.96
2022-11-15T00:30:46.187Z,10.62
2022-11-15T00:33:32.053Z,11.22
2022-11-15T00:36:17.463Z,10.72
2022-11-15T00:39:05.557Z,10.54
2022-11-15T00:41:50.726Z,10.68
2022-11-15T00:44:36.030Z,10.45
2022-11-15T00:47:21.318Z,10.70
2022-11-15T00:50:06.955Z,10.40
2022-11-15T00:52:51.984Z,10.54
2022-11-15T00:55:37.255Z,11.09
2022-11-15T00:58:22.509Z,10.57
2022-11-15T01:01:13.937Z,10.97
2022-11-15T01:04:01.527Z,10.98
2022-11-15T01:06:47.226Z,10.78
2022-11-15T01:09:32.357Z,10.73
2022-11-15T01:12:17.633Z,10.54
2022-11-15T01:15:04.366Z,10.28
2022-11-15T01:17:49.539Z,10.62
2022-11-15T01:20:34.922Z,10.39
2022-11-15T01:23:20.418Z,10.40
2022-11-15T01:26:07.861Z,11.06
2022-11-15T01:28:53.277Z,10.39
2022-11-15T01:31:39.008Z,10.84
2022-11-15T01:34:24.379Z,10.61
2022-11-15T01:37:09.572Z,10.81
2022-11-15T01:39:54.839Z,11.07
2022-11-15T01:42:40.177Z,10.84
2022-11-15T01:45:25.734Z,10.82
2022-11-15T01:48:11.785Z,10.79
2022-11-15T01:50:57.804Z,10.53
2022-11-15T01:53:46.525Z,10.34
2022-11-15T01:56:37.037Z,10.21
2022-11-15T01:59:23.036Z,10.17
2022-11-15T02:02:08.095Z,10.10
2022-11-15T02:04:53.564Z,10.37
2022-11-15T02:07:39.023Z,10.31
2022-11-15T02:10:25.853Z,9.95
2022-11-15T02:13:11.241Z,10.08
2022-11-15T02:16:21.253Z,10.38
2022-11-15T02:19:18.419Z,10.16
2022-11-15T02:22:06.361Z,10.06
2022-11-15T02:25:16.138Z,9.62
2022-11-15T02:28:35.243Z,10.15
2022-11-15T02:31:27.261Z,10.25
2022-11-15T02:34:12.477Z,10.14
2022-11-15T02:37:08.486Z,10.16
2022-11-15T02:40:05.760Z,10.32
2022-11-15T02:43:31.474Z,10.77
2022-11-15T02:46:22.868Z,10.43
2022-11-15T02:49:13.326Z,10.68
2022-11-15T02:51:58.664Z,10.28
2022-11-15T02:54:53.594Z,10.28
2022-11-15T02:58:00.855Z,9.85
2022-11-15T03:01:02.050Z,10.09
2022-11-15T03:04:03.966Z,9.57
2022-11-15T03:07:05.788Z,9.54
2022-11-15T03:09:58.618Z,9.58
2022-11-15T03:13:09.472Z,9.85
2022-11-15T03:16:06.488Z,9.53
2022-11-15T03:18:56.724Z,9.22
2022-11-15T03:21:42.131Z,9.43
2022-11-15T03:24:30.644Z,9.42
2022-11-15T03:27:20.567Z,9.28
2022-11-15T03:30:09.346Z,9.25
2022-11-15T03:32:57.790Z,8.98
2022-11-15T03:35:45.928Z,8.89
2022-11-15T03:38:35.034Z,9.45
2022-11-15T03:41:45.841Z,9.38
2022-11-15T03:44:39.567Z,9.56
2022-11-15T03:47:30.163Z,9.21
2022-11-15T03:50:19.513Z,8.97
2022-11-15T03:53:04.945Z,8.95
2022-11-15T03:55:50.016Z,9.20
2022-11-15T03:58:35.333Z,9.49
2022-11-15T04:01:20.778Z,8.97
2022-11-15T04:04:06.040Z,9.13
2022-11-15T04:06:51.356Z,9.16
2022-11-15T04:09:56.581Z,9.35
2022-11-15T04:12:44.602Z,9.24
2022-11-15T04:15:30.349Z,8.92
2022-11-15T04:18:15.500Z,8.89
2022-11-15T04:21:19.485Z,8.74
2022-11-15T04:24:13.744Z,8.99
2022-11-15T04:26:58.975Z,8.76
2022-11-15T04:29:44.159Z,8.85
2022-11-15T04:32:29.431Z,8.98
2022-11-15T04:35:14.677Z,8.96
2022-11-15T04:38:01.113Z,8.73
2022-11-15T04:40:46.297Z,8.74
2022-11-15T04:43:31.708Z,8.66
2022-11-15T04:46:17.744Z,8.79
2022-11-15T04:49:03.078Z,9.05
2022-11-15T04:51:48.301Z,9.03
2022-11-15T04:54:33.561Z,9.18
2022-11-15T04:57:19.276Z,9.42
2022-11-15T05:00:07.043Z,9.35
2022-11-15T05:03:10.597Z,8.98
2022-11-15T05:05:55.801Z,9.37
2022-11-15T05:08:41.154Z,9.46
2022-11-15T05:11:28.196Z,9.62
2022-11-15T05:14:13.239Z,9.81
2022-11-15T05:16:58.232Z,9.66
2022-11-15T05:19:43.567Z,9.73
2022-11-15T05:22:29.105Z,9.82
2022-11-15T05:25:14.088Z,10.12
2022-11-15T05:27:59.427Z,9.81
2022-11-15T05:30:44.523Z,9.96
2022-11-15T05:33:30.466Z,9.60
2022-11-15T05:36:45.761Z,9.82
2022-11-15T05:39:30.936Z,9.78
2022-11-15T05:42:17.007Z,10.14
2022-11-15T05:45:06.708Z,9.85
2022-11-15T05:47:53.505Z,10.14
2022-11-15T05:50:39.624Z,10.01
2022-11-15T05:53:26.944Z,10.12
2022-11-15T05:56:13.451Z,10.00
2022-11-15T05:59:00.166Z,9.88
2022-11-15T06:01:45.370Z,10.16
2022-11-15T06:04:30.891Z,9.94
2022-11-15T06:07:16.279Z,10.09
2022-11-15T06:10:01.770Z,9.77
2022-11-15T06:12:46.857Z,10.08
2022-11-15T06:15:34.987Z,10.52
2022-11-15T06:18:19.925Z,10.19
2022-11-15T06:21:05.528Z,10.65
2022-11-15T06:23:50.564Z,10.78
2022-11-15T06:26:35.946Z,10.04
2022-11-15T06:29:21.364Z,10.12
2022-11-15T06:32:06.919Z,10.49
2022-11-15T06:34:52.042Z,10.17
2022-11-15T06:37:37.247Z,10.37
2022-11-15T06:40:22.798Z,10.25
2022-11-15T06:43:08.443Z,10.54
2022-11-15T06:45:53.706Z,9.98
2022-11-15T06:48:39.350Z,10.10
2022-11-15T06:51:24.324Z,10.39
2022-11-15T06:54:09.617Z,10.62
2022-11-15T06:56:54.815Z,10.67
2022-11-15T06:59:40.748Z,10.89
2022-11-15T07:02:26.216Z,10.88
2022-11-15T07:05:12.155Z,10.53
2022-11-15T07:07:58.795Z,10.12
2022-11-15T07:10:44.127Z,10.82
2022-11-15T07:13:34.512Z,10.68
2022-11-15T07:16:20.717Z,10.46
2022-11-15T07:19:05.651Z,10.17
2022-11-15T07:21:51.036Z,10.87
2022-11-15T07:24:36.434Z,11.14
2022-11-15T07:27:21.743Z,10.75
2022-11-15T07:30:07.627Z,10.81
2022-11-15T07:33:00.562Z,10.93
2022-11-15T07:35:49.189Z,10.72
2022-11-15T07:38:40.973Z,10.45
2022-11-15T07:41:28.082Z,11.05
2022-11-15T07:44:13.353Z,10.56
2022-11-15T07:46:59.106Z,10.80
2022-11-15T07:49:44.582Z,11.35
2022-11-15T07:52:29.810Z,10.61
2022-11-15T07:55:14.970Z,11.01
2022-11-15T07:58:09.333Z,11.00
2022-11-15T08:00:54.496Z,10.50
2022-11-15T08:03:39.861Z,11.11
2022-11-15T08:06:25.009Z,11.14
2022-11-15T08:09:10.281Z,11.39
2022-11-15T08:11:55.449Z,10.96
2022-11-15T08:14:40.652Z,11.39
2022-11-15T08:17:26.390Z,11.63
2022-11-15T08:20:12.054Z,11.39
2022-11-15T08:22:58.284Z,11.50
2022-11-15T08:25:43.534Z,11.82
2022-11-15T08:28:29.083Z,11.38
2022-11-15T08:31:17.716Z,11.60
2022-11-15T08:34:04.268Z,11.15
2022-11-15T08:36:49.606Z,11.37
2022-11-15T08:39:35.003Z,11.75
2022-11-15T08:42:20.395Z,10.65
2022-11-15T08:45:06.040Z,10.73
2022-11-15T08:47:54.167Z,11.04
2022-11-15T08:50:39.774Z,11.45
2022-11-15T08:53:25.105Z,11.09
2022-11-15T08:56:12.018Z,11.47
2022-11-15T08:58:57.255Z,11.13
2022-11-15T09:01:42.448Z,11.66
2022-11-15T09:04:27.638Z,11.30
2022-11-15T09:07:14.385Z,11.06
2022-11-15T09:09:59.662Z,11.82
2022-11-15T09:12:44.900Z,12.17
2022-11-15T09:15:30.253Z,11.84
2022-11-15T09:18:16.426Z,11.84
2022-11-15T09:21:03.549Z,11.87
2022-11-15T09:23:53.069Z,11.84
2022-11-15T09:26:38.404Z,11.98
2022-11-15T09:29:23.703Z,11.45
2022-11-15T09:32:08.919Z,12.17
2022-11-15T09:34:54.168Z,11.69
2022-11-15T09:37:39.700Z,12.08
2022-11-15T09:40:25.264Z,12.66
2022-11-15T09:43:13.146Z,12.75
2022-11-15T09:46:04.212Z,11.64
2022-11-15T09:49:03.612Z,11.71
2022-11-15T09:51:55.127Z,12.50
2022-11-15T09:57:28.018Z,12.31
2022-11-15T10:00:45.853Z,12.72
2022-11-15T10:03:34.593Z,11.98
2022-11-15T10:06:06.365Z,12.73
2022-11-15T10:08:33.530Z,13.19
2022-11-15T10:11:37.368Z,12.93
2022-11-15T10:14:25.292Z,12.12
2022-11-15T10:17:01.158Z,12.95
2022-11-15T10:19:30.734Z,12.98
2022-11-15T10:22:09.447Z,13.39
2022-11-15T10:24:43.271Z,13.61
2022-11-15T10:27:17.565Z,13.13
2022-11-15T10:29:50.644Z,13.03
2022-11-15T10:32:20.117Z,12.97
2022-11-15T10:34:48.155Z,13.36
2022-11-15T10:37:15.292Z,13.60
2022-11-15T10:39:41.932Z,13.04
2022-11-15T10:42:29.303Z,13.65
2022-11-15T10:45:32.313Z,13.51
2022-11-15T10:48:14.989Z,13.69
2022-11-15T10:50:47.059Z,13.17
2022-11-15T10:53:27.725Z,13.42
2022-11-15T10:55:58.754Z,13.35
2022-11-15T10:58:45.048Z,13.71
2022-11-15T11:01:22.820Z,13.81
2022-11-15T11:04:07.807Z,13.77
2022-11-15T11:06:54.803Z,14.16
2022-11-15T11:09:39.027Z,14.26
2022-11-15T11:12:10.842Z,14.54
2022-11-15T11:14:40.130Z,14.07
2022-11-15T11:17:30.381Z,14.37
2022-11-15T11:20:19.511Z,13.46
2022-11-15T11:22:54.927Z,13.68
2022-11-15T11:25:39.643Z,13.56
2022-11-15T11:28:42.267Z,13.91
2022-11-15T11:31:27.446Z,13.51
2022-11-15T11:34:32.301Z,14.11
2022-11-15T11:37:18.779Z,13.82
2022-11-15T11:39:48.482Z,13.63
2022-11-15T11:42:31.240Z,14.09
2022-11-15T11:45:17.471Z,13.66
2022-11-15T11:48:01.316Z,14.28
2022-11-15T11:50:29.024Z,14.13
2022-11-15T11:53:00.822Z,14.01
2022-11-15T11:55:44.514Z,14.22
2022-11-15T11:58:24.084Z,14.50
2022-11-15T12:01:12.924Z,14.73
2022-11-15T12:03:48.723Z,14.27
2022-11-15T12:06:40.130Z,14.54
2022-11-15T12:09:18.942Z,14.27
2022-11-15T12:11:54.534Z,14.54
2022-11-15T12:14:31.223Z,14.33
2022-11-15T12:16:58.890Z,14.20
2022-11-15T12:19:26.531Z,14.85
2022-11-15T12:22:14.282Z,14.45
2022-11-15T12:24:47.315Z,14.61
2022-11-15T12:27:31.655Z,14.78
2022-11-15T12:30:03.734Z,14.86
2022-11-15T12:32:36.278Z,14.93
2022-11-15T12:35:06.342Z,14.95
2022-11-15T12:37:38.981Z,15.36
2022-11-15T12:40:24.437Z,15.13
2022-11-15T12:42:59.861Z,14.05
2022-11-15T12:45:35.890Z,15.14
2022-11-15T12:48:37.283Z,14.96
2022-11-15T12:51:04.592Z,15.10
2022-11-15T12:53:33.795Z,15.28
2022-11-15T12:56:18.885Z,15.03
2022-11-15T12:58:51.484Z,14.88
2022-11-15T13:01:39.100Z,14.13
2022-11-15T13:04:21.006Z,14.41
2022-11-15T13:07:01.155Z,14.58
2022-11-15T13:09:30.830Z,14.94
2022-11-15T13:11:59.310Z,14.87
2022-11-15T13:14:37.940Z,15.32
2022-11-15T13:17:19.730Z,14.26
2022-11-15T13:19:59.636Z,15.07
2022-11-15T13:23:00.088Z,15.57
2022-11-15T13:25:53.981Z,14.68
2022-11-15T13:28:46.336Z,14.83
2022-11-15T13:31:31.041Z,14.66
2022-11-15T13:34:02.396Z,14.19
2022-11-15T13:36:35.231Z,15.14
2022-11-15T13:39:26.225Z,14.24
2022-11-15T13:41:54.066Z,15.39
2022-11-15T13:44:38.800Z,15.53
2022-11-15T13:47:30.080Z,15.46
2022-11-15T13:50:01.918Z,15.41
2022-11-15T13:52:34.915Z,15.33
2022-11-15T13:55:23.796Z,14.66
2022-11-15T13:57:55.201Z,15.40
2022-11-15T14:00:31.040Z,14.49
2022-11-15T14:03:06.229Z,14.01
2022-11-15T14:05:32.920Z,13.86
2022-11-15T14:08:13.962Z,14.10
2022-11-15T14:10:41.168Z,14.07
2022-11-15T14:13:28.027Z,14.84
2022-11-15T14:15:54.557Z,15.32
2022-11-15T14:18:51.470Z,14.62
2022-11-15T14:21:19.902Z,15.35
2022-11-15T14:23:47.085Z,15.13
2022-11-15T14:26:34.151Z,15.29
2022-11-15T14:29:23.248Z,14.71
2022-11-15T14:31:50.220Z,14.30
2022-11-15T14:34:17.007Z,14.74
2022-11-15T14:36:43.741Z,14.68
2022-11-15T14:39:10.596Z,14.90
2022-11-15T14:41:40.873Z,15.04
2022-11-15T14:44:10.210Z,15.40
2022-11-15T14:46:36.980Z,15.33
2022-11-15T14:49:03.601Z,14.75
2022-11-15T14:51:33.848Z,14.79
2022-11-15T14:54:00.469Z,14.79
2022-11-15T14:56:27.252Z,15.11
2022-11-15T14:58:55.874Z,15.25
2022-11-15T15:01:25.212Z,14.96
2022-11-15T15:03:53.265Z,14.91
2022-11-15T15:06:20.129Z,15.01
2022-11-15T15:08:49.088Z,14.08
2022-11-15T15:11:30.999Z,14.51
2022-11-15T15:14:00.532Z,14.79
2022-11-15T15:16:27.464Z,14.11
2022-11-15T15:18:54.512Z,14.86
2022-11-15T15:21:24.106Z,14.75
2022-11-15T15:23:51.779Z,14.62
2022-11-15T15:26:18.769Z,14.77
2022-11-15T15:28:45.416Z,14.31
2022-11-15T15:31:12.328Z,13.87
2022-11-15T15:33:39.113Z,13.90
2022-11-15T15:36:06.433Z,14.80
2022-11-15T15:38:33.545Z,14.28
2022-11-15T15:41:02.895Z,14.21
2022-11-15T15:43:29.558Z,14.17
2022-11-15T15:45:56.221Z,14.64
2022-11-15T15:48:22.872Z,14.05
2022-11-15T15:50:50.153Z,14.25
2022-11-15T15:53:18.296Z,14.03
2022-11-15T15:55:44.947Z,14.67
2022-11-15T15:58:11.562Z,14.00
2022-11-15T16:00:38.791Z,13.89
2022-11-15T16:03:05.558Z,14.52
2022-11-15T16:05:32.247Z,14.54
2022-11-15T16:07:58.965Z,14.94
2022-11-15T16:10:28.163Z,15.25
2022-11-15T16:12:56.377Z,14.83
2022-11-15T16:15:25.163Z,15.43
2022-11-15T16:17:54.517Z,15.33
2022-11-15T16:20:32.021Z,14.31
2022-11-15T16:23:02.088Z,14.54
2022-11-15T16:25:45.435Z,14.52
2022-11-15T16:28:37.535Z,14.24
2022-11-15T16:31:11.391Z,14.69
2022-11-15T16:33:38.578Z,14.13
2022-11-15T16:36:07.139Z,14.20
2022-11-15T16:38:34.306Z,14.80
2022-11-15T16:41:02.907Z,14.54
2022-11-15T16:43:29.604Z,14.96
2022-11-15T16:45:56.276Z,14.39
2022-11-15T16:48:25.503Z,14.82
2022-11-15T16:50:59.056Z,14.41
2022-11-15T16:53:28.841Z,14.78
2022-11-15T16:55:56.133Z,14.36
2022-11-15T16:58:23.101Z,14.22
2022-11-15T17:00:54.430Z,14.90
2022-11-15T17:03:25.227Z,14.28
2022-11-15T17:05:52.406Z,14.70
2022-11-15T17:08:21.705Z,14.69
2022-11-15T17:10:48.447Z,14.02
2022-11-15T17:13:15.267Z,14.22
2022-11-15T17:15:42.185Z,14.40
2022-11-15T17:18:12.614Z,14.56
2022-11-15T17:20:40.845Z,14.92
2022-11-15T17:23:14.326Z,14.84
2022-11-15T17:25:41.392Z,15.07
2022-11-15T17:28:08.022Z,14.63
2022-11-15T17:30:35.735Z,14.42
2022-11-15T17:33:02.431Z,14.80
2022-11-15T17:35:29.118Z,14.66
2022-11-15T17:37:55.976Z,14.31
2022-11-15T17:40:22.613Z,14.73
2022-11-15T17:42:49.384Z,14.31
2022-11-15T17:45:16.244Z,14.47
2022-11-15T17:47:43.917Z,14.62
2022-11-15T17:50:11.598Z,14.16
2022-11-15T17:52:38.278Z,14.46
2022-11-15T17:55:05.193Z,14.14
2022-11-15T17:57:31.912Z,14.25
2022-11-15T17:59:58.471Z,14.06
2022-11-15T18:02:25.098Z,14.02
2022-11-15T18:04:51.750Z,14.50
2022-11-15T18:07:18.539Z,14.48
2022-11-15T18:09:45.496Z,14.04
2022-11-15T18:12:12.477Z,13.96
2022-11-15T18:14:39.311Z,13.36
2022-11-15T18:17:06.169Z,14.28
2022-11-15T18:19:32.886Z,13.81
2022-11-15T18:22:00.900Z,13.69
2022-11-15T18:24:30.922Z,13.85
2022-11-15T18:26:59.394Z,14.11
2022-11-15T18:29:26.122Z,15.06
2022-11-15T18:31:55.741Z,14.08
2022-11-15T18:34:31.815Z,14.35
2022-11-15T18:36:58.464Z,13.86
2022-11-15T18:39:25.150Z,14.03
2022-11-15T18:41:52.296Z,14.32
2022-11-15T18:44:19.312Z,14.05
2022-11-15T18:46:46.494Z,14.80
2022-11-15T18:49:14.868Z,14.17
2022-11-15T18:51:42.233Z,13.73
2022-11-15T18:54:11.210Z,13.82
2022-11-15T18:56:38.331Z,14.84
2022-11-15T18:59:06.201Z,15.09
2022-11-15T19:01:35.773Z,15.04
2022-11-15T19:04:09.736Z,14.20
2022-11-15T19:06:41.322Z,14.65
2022-11-15T19:09:09.136Z,14.43
2022-11-15T19:11:39.517Z,14.47
2022-11-15T19:14:11.342Z,14.98
2022-11-15T19:16:44.826Z,13.95
2022-11-15T19:19:17.011Z,14.63
2022-11-15T19:21:44.133Z,14.24
2022-11-15T19:24:11.444Z,14.30
2022-11-15T19:26:39.059Z,14.98
2022-11-15T19:29:07.699Z,15.35
2022-11-15T19:31:34.549Z,14.61
2022-11-15T19:34:04.489Z,14.64
2022-11-15T19:36:33.938Z,14.87
2022-11-15T19:39:05.262Z,14.91
2022-11-15T19:41:32.464Z,14.78
2022-11-15T19:43:59.162Z,14.35
2022-11-15T19:46:26.858Z,13.87
2022-11-15T19:48:54.064Z,14.34
2022-11-15T19:51:22.990Z,14.13
2022-11-15T19:53:53.015Z,14.71
2022-11-15T19:56:20.514Z,14.65
2022-11-15T19:58:52.109Z,15.37
2022-11-15T20:01:21.711Z,15.31
2022-11-15T20:03:50.146Z,15.34
2022-11-15T20:06:19.519Z,14.28
2022-11-15T20:08:46.972Z,14.92
2022-11-15T20:11:14.769Z,14.87
2022-11-15T20:13:42.497Z,15.15
2022-11-15T20:16:14.682Z,15.57
2022-11-15T20:18:41.396Z,15.27
2022-11-15T20:21:09.021Z,14.63
2022-11-15T20:23:35.648Z,14.70
2022-11-15T20:26:02.215Z,14.75
2022-11-15T20:28:29.389Z,15.12
2022-11-15T20:30:58.566Z,14.96
2022-11-15T20:33:25.848Z,14.64
2022-11-15T20:35:53.150Z,14.64
2022-11-15T20:38:21.219Z,15.48
2022-11-15T20:40:49.227Z,14.84
2022-11-15T20:43:17.525Z,14.78
2022-11-15T20:45:45.998Z,15.37
2022-11-15T20:48:13.973Z,14.83
2022-11-15T20:50:43.121Z,15.52
2022-11-15T20:53:12.066Z,15.50
2022-11-15T20:55:40.954Z,15.15
2022-11-15T20:58:09.432Z,15.64
2022-11-15T21:00:37.093Z,14.22
2022-11-15T21:03:06.887Z,14.68
2022-11-15T21:05:41.609Z,14.55
2022-11-15T21:08:09.525Z,15.12
2022-11-15T21:10:54.538Z,15.38
2022-11-15T21:13:21.475Z,14.72
2022-11-15T21:15:48.314Z,14.47
2022-11-15T21:18:15.420Z,14.27
2022-11-15T21:20:42.488Z,15.26
2022-11-15T21:23:09.576Z,15.07
2022-11-15T21:25:36.193Z,15.25
2022-11-15T21:28:03.121Z,15.01
2022-11-15T21:30:30.200Z,15.51
2022-11-15T21:32:56.923Z,15.37
2022-11-15T21:35:23.874Z,15.19
2022-11-15T21:37:56.187Z,14.67
2022-11-15T21:40:24.028Z,14.93
2022-11-15T21:42:50.858Z,14.98
2022-11-15T21:45:17.468Z,14.90
2022-11-15T21:47:46.400Z,14.34
2022-11-15T21:50:13.742Z,14.97
2022-11-15T21:52:40.871Z,14.34
2022-11-15T21:55:08.586Z,14.45
2022-11-15T21:57:38.258Z,14.01
2022-11-15T22:00:23.798Z,14.87
2022-11-15T22:02:50.393Z,13.95
2022-11-15T22:05:17.077Z,13.92
2022-11-15T22:07:43.632Z,14.24
2022-11-15T22:10:10.462Z,14.43
2022-11-15T22:12:37.202Z,14.16
2022-11-15T22:15:04.094Z,14.18
2022-11-15T22:17:50.683Z,14.27
2022-11-15T22:20:42.954Z,13.17
2022-11-15T22:23:05.042Z,13.45
2022-11-15T22:25:32.894Z,13.81
2022-11-15T22:27:59.668Z,13.83
2022-11-15T22:30:26.295Z,13.18
2022-11-15T22:32:52.961Z,13.58
2022-11-15T22:35:19.569Z,12.97
2022-11-15T22:37:46.242Z,13.84
2022-11-15T22:40:12.908Z,14.53
2022-11-15T22:42:39.580Z,13.80
2022-11-15T22:45:06.749Z,13.60
2022-11-15T22:47:33.351Z,13.53
2022-11-15T22:50:00.208Z,13.72
2022-11-15T22:52:26.899Z,13.66
2022-11-15T22:54:53.579Z,14.02
2022-11-15T22:57:20.768Z,12.95
2022-11-15T22:59:47.459Z,13.15
2022-11-15T23:02:14.137Z,13.67
2022-11-15T23:04:40.830Z,13.73
2022-11-15T23:07:07.624Z,13.63
2022-11-15T23:09:34.340Z,14.06
2022-11-15T23:12:19.583Z,14.03
2022-11-15T23:14:46.367Z,13.85
2022-11-15T23:17:13.004Z,13.65
2022-11-15T23:19:40.050Z,13.42
2022-11-15T23:22:25.225Z,13.58
2022-11-15T23:24:53.219Z,13.86
2022-11-15T23:27:20.695Z,13.88
2022-11-15T23:30:06.589Z,13.35
2022-11-15T23:32:51.858Z,13.61
2022-11-15T23:35:18.517Z,13.35
2022-11-15T23:37:45.498Z,13.48
2022-11-15T23:40:12.769Z,12.97
2022-11-15T23:42:39.827Z,12.86
2022-11-15T23:45:07.165Z,13.05
2022-11-15T23:47:33.994Z,13.24
2022-11-15T23:50:00.765Z,13.69
2022-11-15T23:52:27.409Z,12.58
2022-11-15T23:54:54.100Z,12.72
2022-11-15T23:57:21.342Z,13.20
2022-11-15T23:59:48.093Z,12.84
